createdAt,value
2018-07-08T00:00:21.044Z,18.30
2018-07-08T00:02:49.373Z,12.73
2018-07-08T00:05:16.472Z,16.70
2018-07-08T00:07:48.836Z,15.50
2018-07-08T00:10:19.814Z,14.43
2018-07-08T00:12:47.152Z,14.80
2018-07-08T00:15:14.174Z,11.27
2018-07-08T00:17:41.073Z,11.13
2018-07-08T00:20:08.762Z,15.17
2018-07-08T00:22:35.736Z,15.53
2018-07-08T00:25:03.041Z,13.17
2018-07-08T00:27:31.226Z,17.90
2018-07-08T00:30:01.021Z,14.70
2018-07-08T00:32:28.151Z,17.10
2018-07-08T00:34:55.086Z,14.63
2018-07-08T00:37:22.012Z,15.90
2018-07-08T00:39:48.959Z,16.33
2018-07-08T00:42:18.515Z,17.43
2018-07-08T00:44:46.732Z,18.37
2018-07-08T00:47:13.642Z,20.50
2018-07-08T00:49:40.570Z,16.33
2018-07-08T00:52:07.716Z,13.00
2018-07-08T00:54:34.792Z,16.67
2018-07-08T00:57:01.781Z,16.50
2018-07-08T00:59:28.709Z,14.50
2018-07-08T01:01:55.615Z,14.03
2018-07-08T01:04:22.563Z,11.77
2018-07-08T01:06:49.549Z,18.70
2018-07-08T01:09:16.481Z,13.10
2018-07-08T01:11:43.431Z,17.47
2018-07-08T01:14:10.364Z,13.27
2018-07-08T01:16:37.272Z,17.17
2018-07-08T01:19:04.249Z,16.73
2018-07-08T01:21:31.187Z,17.43
2018-07-08T01:23:58.110Z,15.67
2018-07-08T01:26:25.936Z,16.83
2018-07-08T01:28:52.876Z,11.90
2018-07-08T01:31:19.797Z,13.03
2018-07-08T01:33:46.704Z,15.97
2018-07-08T01:36:13.620Z,13.80
2018-07-08T01:38:40.552Z,15.27
2018-07-08T01:41:07.471Z,15.30
2018-07-08T01:43:34.394Z,19.57
2018-07-08T01:46:01.329Z,13.40
2018-07-08T01:48:28.241Z,16.50
2018-07-08T01:50:55.168Z,17.17
2018-07-08T01:53:22.764Z,20.73
2018-07-08T01:55:49.720Z,19.80
2018-07-08T01:58:16.647Z,14.50
2018-07-08T02:00:43.608Z,12.90
2018-07-08T02:03:10.525Z,15.47
2018-07-08T02:05:37.707Z,15.53
2018-07-08T02:08:04.640Z,16.43
2018-07-08T02:10:31.578Z,13.37
2018-07-08T02:12:58.537Z,11.47
2018-07-08T02:15:25.660Z,11.00
2018-07-08T02:17:52.610Z,14.50
2018-07-08T02:20:19.572Z,13.77
2018-07-08T02:22:46.568Z,10.83
2018-07-08T02:25:13.487Z,15.87
2018-07-08T02:27:40.430Z,17.30
2018-07-08T02:30:07.359Z,14.13
2018-07-08T02:32:34.327Z,16.77
2018-07-08T02:35:01.248Z,15.17
2018-07-08T02:37:28.227Z,13.73
2018-07-08T02:39:55.144Z,13.60
2018-07-08T02:42:22.193Z,13.33
2018-07-08T02:44:49.149Z,11.67
2018-07-08T02:47:16.077Z,11.67
2018-07-08T02:49:43.009Z,16.07
2018-07-08T02:52:09.982Z,14.67
2018-07-08T02:54:36.905Z,13.33
2018-07-08T02:57:03.936Z,12.67
2018-07-08T02:59:30.841Z,12.53
2018-07-08T03:01:57.777Z,15.77
2018-07-08T03:04:24.725Z,12.20
2018-07-08T03:06:51.643Z,15.50
2018-07-08T03:09:18.545Z,13.63
2018-07-08T03:11:45.462Z,18.77
2018-07-08T03:14:12.389Z,15.83
2018-07-08T03:16:39.315Z,14.67
2018-07-08T03:19:06.276Z,11.07
2018-07-08T03:21:33.193Z,12.73
2018-07-08T03:24:00.236Z,13.33
2018-07-08T03:26:27.168Z,14.37
2018-07-08T03:28:54.099Z,13.07
2018-07-08T03:31:21.040Z,14.10
2018-07-08T03:33:48.064Z,15.33
2018-07-08T03:36:15.069Z,10.40
2018-07-08T03:38:42.056Z,12.37
2018-07-08T03:41:09.015Z,12.30
2018-07-08T03:43:35.970Z,15.03
2018-07-08T03:46:02.926Z,15.20
2018-07-08T03:48:29.872Z,13.87
2018-07-08T03:50:56.874Z,11.47
2018-07-08T03:53:23.809Z,17.37
2018-07-08T03:55:50.866Z,11.90
2018-07-08T03:58:17.845Z,16.20
2018-07-08T04:00:44.826Z,11.13
2018-07-08T04:03:11.818Z,13.73
2018-07-08T04:05:38.748Z,16.60
2018-07-08T04:08:05.708Z,14.43
2018-07-08T04:10:32.684Z,13.93
2018-07-08T04:13:00.173Z,13.93
2018-07-08T04:15:27.125Z,10.27
2018-07-08T04:17:59.929Z,13.90
2018-07-08T04:20:26.856Z,13.73
2018-07-08T04:22:53.805Z,11.13
2018-07-08T04:25:20.769Z,10.77
2018-07-08T04:27:47.752Z,12.97
2018-07-08T04:30:14.704Z,13.03
2018-07-08T04:32:41.640Z,11.87
2018-07-08T04:35:08.572Z,14.57
2018-07-08T04:37:35.502Z,10.60
2018-07-08T04:40:02.476Z,12.87
2018-07-08T04:42:29.397Z,13.57
2018-07-08T04:44:56.295Z,15.33
2018-07-08T04:47:23.248Z,10.97
2018-07-08T04:49:50.189Z,12.43
2018-07-08T04:52:17.117Z,12.70
2018-07-08T04:54:44.072Z,10.23
2018-07-08T04:57:11.000Z,13.40
2018-07-08T04:59:37.895Z,11.83
2018-07-08T05:02:04.933Z,12.70
2018-07-08T05:04:31.835Z,11.43
2018-07-08T05:06:58.793Z,10.07
2018-07-08T05:09:25.791Z,14.40
2018-07-08T05:11:52.699Z,10.87
2018-07-08T05:14:19.632Z,16.07
2018-07-08T05:16:46.545Z,12.63
2018-07-08T05:19:13.476Z,12.00
2018-07-08T05:21:40.387Z,12.07
2018-07-08T05:24:07.300Z,10.10
2018-07-08T05:26:34.220Z,10.90
2018-07-08T05:29:01.169Z,8.90
2018-07-08T05:31:28.120Z,10.17
2018-07-08T05:33:55.042Z,11.67
2018-07-08T05:36:21.960Z,11.63
2018-07-08T05:38:48.899Z,10.80
2018-07-08T05:41:15.833Z,12.43
2018-07-08T05:43:42.789Z,12.37
2018-07-08T05:46:09.732Z,7.53
2018-07-08T05:48:36.705Z,9.10
2018-07-08T05:51:03.688Z,11.17
2018-07-08T05:53:30.580Z,14.00
2018-07-08T05:55:57.529Z,11.00
2018-07-08T05:58:24.461Z,9.80
2018-07-08T06:00:51.372Z,11.03
2018-07-08T06:03:18.345Z,12.77
2018-07-08T06:05:45.281Z,11.57
2018-07-08T06:08:12.239Z,12.13
2018-07-08T06:10:39.148Z,10.27
2018-07-08T06:13:06.263Z,12.00
2018-07-08T06:15:33.181Z,9.27
2018-07-08T06:18:00.109Z,14.10
2018-07-08T06:20:27.044Z,17.67
2018-07-08T06:22:53.961Z,11.43
2018-07-08T06:25:20.888Z,11.70
2018-07-08T06:27:47.805Z,10.47
2018-07-08T06:30:14.752Z,11.43
2018-07-08T06:32:41.846Z,13.33
2018-07-08T06:35:08.768Z,12.57
2018-07-08T06:37:35.712Z,10.43
2018-07-08T06:40:02.640Z,10.33
2018-07-08T06:42:29.565Z,8.07
2018-07-08T06:44:56.488Z,13.20
2018-07-08T06:47:23.412Z,11.37
2018-07-08T06:49:50.339Z,9.33
2018-07-08T06:52:17.261Z,11.00
2018-07-08T06:54:44.192Z,7.83
2018-07-08T06:57:11.107Z,10.03
2018-07-08T06:59:38.047Z,10.23
2018-07-08T07:02:04.974Z,11.70
2018-07-08T07:04:31.944Z,9.70
2018-07-08T07:06:58.884Z,9.07
2018-07-08T07:09:25.827Z,10.00
2018-07-08T07:11:52.797Z,11.23
2018-07-08T07:14:19.754Z,7.87
2018-07-08T07:16:46.812Z,9.87
2018-07-08T07:19:13.744Z,9.97
2018-07-08T07:21:40.701Z,10.93
2018-07-08T07:24:07.677Z,10.47
2018-07-08T07:26:34.688Z,8.87
2018-07-08T07:29:01.653Z,9.07
2018-07-08T07:31:28.600Z,12.50
2018-07-08T07:33:55.540Z,8.37
2018-07-08T07:36:22.480Z,9.33
2018-07-08T07:38:49.434Z,6.20
2018-07-08T07:41:16.381Z,8.13
2018-07-08T07:43:43.709Z,8.27
2018-07-08T07:46:10.645Z,8.27
2018-07-08T07:48:37.601Z,8.57
2018-07-08T07:51:04.537Z,8.97
2018-07-08T07:53:31.480Z,9.93
2018-07-08T07:55:58.740Z,8.60
2018-07-08T07:58:25.802Z,10.20
2018-07-08T08:00:52.789Z,5.83
2018-07-08T08:03:19.741Z,8.17
2018-07-08T08:05:46.706Z,10.30
2018-07-08T08:08:13.654Z,8.67
2018-07-08T08:10:40.611Z,10.87
2018-07-08T08:13:07.630Z,9.43
2018-07-08T08:15:34.547Z,7.10
2018-07-08T08:18:01.514Z,9.90
2018-07-08T08:20:28.473Z,8.63
2018-07-08T08:22:55.408Z,7.47
2018-07-08T08:25:22.334Z,11.50
2018-07-08T08:27:49.289Z,7.23
2018-07-08T08:30:16.227Z,8.33
2018-07-08T08:32:43.209Z,6.53
2018-07-08T08:35:11.243Z,7.20
2018-07-08T08:37:42.264Z,8.10
2018-07-08T08:40:10.070Z,6.50
2018-07-08T08:42:37.065Z,9.10
2018-07-08T08:45:04.532Z,6.47
2018-07-08T08:47:32.101Z,9.17
2018-07-08T08:49:59.100Z,9.00
2018-07-08T08:52:26.105Z,8.83
2018-07-08T08:54:53.584Z,9.27
2018-07-08T08:57:20.530Z,7.60
2018-07-08T09:02:21.040Z,8.23
2018-07-08T09:04:48.025Z,8.23
2018-07-08T09:07:16.105Z,6.40
2018-07-08T09:09:43.078Z,6.30
2018-07-08T09:12:10.524Z,10.30
2018-07-08T09:14:37.854Z,7.83
2018-07-08T09:17:05.148Z,8.40
2018-07-08T09:19:32.125Z,7.50
2018-07-08T09:21:59.090Z,7.20
2018-07-08T09:24:26.368Z,8.17
2018-07-08T09:26:53.397Z,8.03
2018-07-08T09:29:21.028Z,6.73
2018-07-08T09:31:47.965Z,8.20
2018-07-08T09:34:15.160Z,7.33
2018-07-08T09:36:42.153Z,8.33
2018-07-08T09:39:11.525Z,8.43
2018-07-08T09:41:39.183Z,5.17
2018-07-08T09:44:06.114Z,8.17
2018-07-08T09:46:33.104Z,7.23
2018-07-08T09:49:00.324Z,7.40
2018-07-08T09:51:27.236Z,8.43
2018-07-08T09:53:54.177Z,6.70
2018-07-08T09:56:21.251Z,7.30
2018-07-08T09:58:48.209Z,7.50
2018-07-08T10:01:15.161Z,5.03
2018-07-08T10:03:42.090Z,7.10
2018-07-08T10:06:09.028Z,5.83
2018-07-08T10:08:37.924Z,4.93
2018-07-08T10:11:05.025Z,5.40
2018-07-08T10:13:32.761Z,7.63
2018-07-08T10:15:59.747Z,6.23
2018-07-08T10:18:26.745Z,5.20
2018-07-08T10:20:53.737Z,6.07
2018-07-08T10:23:20.812Z,7.10
2018-07-08T10:25:47.742Z,5.33
2018-07-08T10:28:16.242Z,4.73
2018-07-08T10:30:43.907Z,6.53
2018-07-08T10:33:11.053Z,4.33
2018-07-08T10:35:50.645Z,5.60
2018-07-08T10:38:17.684Z,3.70
2018-07-08T10:40:45.051Z,5.37
2018-07-08T10:43:12.047Z,5.90
2018-07-08T10:45:39.108Z,6.00
2018-07-08T10:48:06.082Z,5.90
2018-07-08T10:50:33.087Z,7.13
2018-07-08T10:53:00.307Z,3.10
2018-07-08T10:55:27.507Z,7.20
2018-07-08T10:57:54.416Z,4.10
2018-07-08T11:00:21.394Z,5.80
2018-07-08T11:02:48.385Z,5.30
2018-07-08T11:05:15.340Z,5.60
2018-07-08T11:07:42.337Z,5.43
2018-07-08T11:10:09.309Z,3.17
2018-07-08T11:12:36.603Z,4.67
2018-07-08T11:15:03.825Z,4.07
2018-07-08T11:17:30.781Z,5.37
2018-07-08T11:19:57.753Z,4.17
2018-07-08T11:22:24.692Z,3.13
2018-07-08T11:24:51.637Z,4.07
2018-07-08T11:27:18.580Z,4.47
2018-07-08T11:29:45.568Z,5.10
2018-07-08T11:32:12.494Z,4.23
2018-07-08T11:34:39.420Z,4.63
2018-07-08T11:37:06.412Z,6.47
2018-07-08T11:39:33.679Z,6.37
2018-07-08T11:42:00.714Z,5.50
2018-07-08T11:44:27.630Z,5.63
2018-07-08T11:46:54.561Z,5.33
2018-07-08T11:49:21.681Z,4.17
2018-07-08T11:51:48.640Z,4.63
2018-07-08T11:54:16.081Z,6.47
2018-07-08T11:56:43.017Z,6.77
2018-07-08T11:59:10.118Z,3.80
2018-07-08T12:01:37.043Z,4.63
2018-07-08T12:04:04.156Z,5.73
2018-07-08T12:06:31.231Z,3.00
2018-07-08T12:08:58.149Z,4.90
2018-07-08T12:11:25.053Z,5.53
2018-07-08T12:13:52.577Z,3.83
2018-07-08T12:16:19.568Z,4.80
2018-07-08T12:18:46.557Z,4.17
2018-07-08T12:21:13.550Z,4.60
2018-07-08T12:23:41.552Z,3.53
2018-07-08T12:26:08.492Z,7.67
2018-07-08T12:28:35.469Z,5.90
2018-07-08T12:31:02.449Z,3.83
2018-07-08T12:33:29.425Z,4.87
2018-07-08T12:35:56.420Z,6.77
2018-07-08T12:38:23.361Z,7.77
2018-07-08T12:40:51.980Z,4.97
2018-07-08T12:43:21.282Z,5.67
2018-07-08T12:45:49.920Z,8.57
2018-07-08T12:48:17.929Z,9.43
2018-07-08T12:50:44.864Z,7.57
2018-07-08T12:53:11.841Z,5.80
2018-07-08T12:55:38.832Z,4.67
2018-07-08T12:58:05.802Z,4.77
2018-07-08T13:00:32.772Z,5.90
2018-07-08T13:02:59.725Z,7.03
2018-07-08T13:05:26.677Z,5.93
2018-07-08T13:07:53.636Z,6.87
2018-07-08T13:10:20.608Z,10.10
2018-07-08T13:12:47.531Z,6.47
2018-07-08T13:15:14.500Z,6.43
2018-07-08T13:17:41.444Z,31.97
2018-07-08T13:20:08.559Z,10.53
2018-07-08T13:22:35.501Z,8.43
2018-07-08T13:25:02.489Z,8.87
2018-07-08T13:27:29.437Z,6.10
2018-07-08T13:29:56.426Z,6.47
2018-07-08T13:32:23.405Z,5.27
2018-07-08T13:34:50.339Z,7.27
2018-07-08T13:37:17.285Z,10.80
2018-07-08T13:39:44.272Z,6.03
2018-07-08T13:42:11.265Z,14.70
2018-07-08T13:44:38.238Z,5.20
2018-07-08T13:47:05.207Z,5.43
2018-07-08T13:49:32.173Z,5.40
2018-07-08T13:51:59.092Z,6.77
2018-07-08T13:54:26.044Z,5.47
2018-07-08T13:56:53.008Z,5.03
2018-07-08T13:59:20.005Z,6.00
2018-07-08T14:01:47.004Z,7.53
2018-07-08T14:04:13.937Z,5.10
2018-07-08T14:06:40.910Z,5.87
2018-07-08T14:09:07.868Z,6.17
2018-07-08T14:11:34.836Z,7.33
2018-07-08T14:14:01.773Z,8.60
2018-07-08T14:16:28.710Z,7.10
2018-07-08T14:18:55.661Z,6.03
2018-07-08T14:21:22.592Z,5.43
2018-07-08T14:23:49.525Z,6.27
2018-07-08T14:26:16.505Z,4.83
2018-07-08T14:28:43.441Z,4.73
2018-07-08T14:31:10.386Z,6.20
2018-07-08T14:33:37.324Z,7.33
2018-07-08T14:36:04.355Z,5.00
2018-07-08T14:38:31.311Z,3.97
2018-07-08T14:40:58.260Z,3.83
2018-07-08T14:43:25.190Z,5.10
2018-07-08T14:45:52.116Z,4.57
2018-07-08T14:48:19.052Z,6.10
2018-07-08T14:50:46.005Z,4.93
2018-07-08T14:53:12.961Z,5.40
2018-07-08T14:55:39.892Z,5.80
2018-07-08T14:58:08.144Z,3.80
2018-07-08T15:00:35.240Z,4.10
2018-07-08T15:03:02.171Z,4.00
2018-07-08T15:05:29.150Z,6.67
2018-07-08T15:07:56.080Z,5.77
2018-07-08T15:10:23.060Z,3.07
2018-07-08T15:12:49.994Z,3.73
2018-07-08T15:15:16.940Z,7.17
2018-07-08T15:17:43.911Z,7.33
2018-07-08T15:20:10.873Z,6.40
2018-07-08T15:22:37.814Z,4.67
2018-07-08T15:25:04.762Z,4.37
2018-07-08T15:27:31.985Z,2.83
2018-07-08T15:29:58.945Z,3.97
2018-07-08T15:32:25.905Z,4.90
2018-07-08T15:34:52.871Z,5.07
2018-07-08T15:37:19.841Z,3.20
2018-07-08T15:39:46.806Z,3.53
2018-07-08T15:42:13.758Z,4.43
2018-07-08T15:44:40.676Z,4.03
2018-07-08T15:47:07.698Z,4.00
2018-07-08T15:49:34.614Z,3.83
2018-07-08T15:52:01.489Z,4.83
2018-07-08T15:54:28.425Z,5.50
2018-07-08T15:56:55.761Z,3.87
2018-07-08T15:59:22.712Z,7.00
2018-07-08T16:01:49.668Z,5.37
2018-07-08T16:04:16.575Z,3.37
2018-07-08T16:06:43.493Z,3.57
2018-07-08T16:09:10.464Z,5.03
2018-07-08T16:11:37.519Z,4.97
2018-07-08T16:14:04.547Z,5.13
2018-07-08T16:16:31.483Z,3.30
2018-07-08T16:18:58.786Z,3.73
2018-07-08T16:21:25.748Z,4.13
2018-07-08T16:23:52.656Z,6.03
2018-07-08T16:26:19.621Z,3.80
2018-07-08T16:28:46.531Z,4.93
2018-07-08T16:31:13.449Z,4.57
2018-07-08T16:33:40.390Z,3.83
2018-07-08T16:36:07.321Z,6.00
2018-07-08T16:38:34.285Z,3.27
2018-07-08T16:41:01.296Z,3.60
2018-07-08T16:43:28.424Z,3.73
2018-07-08T16:45:55.426Z,4.87
2018-07-08T16:48:22.439Z,5.77
2018-07-08T16:50:49.392Z,4.17
2018-07-08T16:53:16.332Z,4.23
2018-07-08T16:55:43.331Z,5.37
2018-07-08T16:58:10.237Z,6.63
2018-07-08T17:00:37.197Z,4.60
2018-07-08T17:03:04.140Z,5.40
2018-07-08T17:05:31.122Z,7.90
2018-07-08T17:07:58.768Z,4.93
2018-07-08T17:10:25.909Z,4.23
2018-07-08T17:12:54.088Z,3.07
2018-07-08T17:15:20.996Z,3.73
2018-07-08T17:17:47.915Z,4.00
2018-07-08T17:20:14.809Z,4.30
2018-07-08T17:22:41.781Z,4.40
2018-07-08T17:25:08.693Z,3.30
2018-07-08T17:27:35.615Z,3.93
2018-07-08T17:30:02.554Z,4.93
2018-07-08T17:32:30.540Z,3.40
2018-07-08T17:34:57.484Z,5.20
2018-07-08T17:37:24.416Z,5.30
2018-07-08T17:39:51.432Z,3.33
2018-07-08T17:42:18.354Z,4.07
2018-07-08T17:44:45.268Z,3.23
2018-07-08T17:47:12.183Z,3.10
2018-07-08T17:49:39.184Z,3.37
2018-07-08T17:52:06.148Z,5.23
2018-07-08T17:54:33.080Z,6.10
2018-07-08T17:57:00.047Z,3.00
2018-07-08T17:59:26.971Z,5.20
2018-07-08T18:01:53.913Z,4.37
2018-07-08T18:04:20.861Z,3.73
2018-07-08T18:06:47.853Z,4.40
2018-07-08T18:09:14.788Z,3.37
2018-07-08T18:11:42.175Z,3.43
2018-07-08T18:14:09.161Z,4.37
2018-07-08T18:16:36.050Z,3.70
2018-07-08T18:19:03.011Z,5.60
2018-07-08T18:21:29.961Z,2.80
2018-07-08T18:23:56.909Z,4.90
2018-07-08T18:26:23.811Z,3.73
2018-07-08T18:28:50.764Z,3.23
2018-07-08T18:31:17.698Z,2.43
2018-07-08T18:33:44.637Z,5.47
2018-07-08T18:36:11.524Z,5.43
2018-07-08T18:38:38.460Z,5.60
2018-07-08T18:41:05.672Z,4.43
2018-07-08T18:43:32.629Z,4.33
2018-07-08T18:45:59.808Z,4.33
2018-07-08T18:48:26.725Z,5.27
2018-07-08T18:50:53.655Z,6.43
2018-07-08T18:53:20.577Z,5.83
2018-07-08T18:55:47.553Z,3.70
2018-07-08T18:58:14.824Z,6.17
2018-07-08T19:00:41.769Z,4.27
2018-07-08T19:03:08.700Z,3.77
2018-07-08T19:05:35.737Z,5.27
2018-07-08T19:08:02.734Z,6.97
2018-07-08T19:10:29.664Z,4.00
2018-07-08T19:12:56.628Z,5.50
2018-07-08T19:15:23.551Z,3.50
2018-07-08T19:17:50.478Z,4.30
2018-07-08T19:20:17.411Z,4.23
2018-07-08T19:22:44.352Z,4.57
2018-07-08T19:25:11.260Z,5.07
2018-07-08T19:27:38.232Z,6.20
2018-07-08T19:30:05.435Z,3.43
2018-07-08T19:32:32.599Z,5.03
2018-07-08T19:34:59.832Z,7.50
2018-07-08T19:37:26.872Z,6.23
2018-07-08T19:39:53.780Z,5.70
2018-07-08T19:42:20.708Z,2.90
2018-07-08T19:44:47.650Z,5.23
2018-07-08T19:47:14.606Z,6.47
2018-07-08T19:49:41.476Z,4.07
2018-07-08T19:52:08.417Z,3.93
2018-07-08T19:54:35.400Z,5.50
2018-07-08T19:57:02.318Z,4.47
2018-07-08T19:59:29.283Z,4.90
2018-07-08T20:01:56.200Z,7.03
2018-07-08T20:04:23.104Z,5.67
2018-07-08T20:06:50.031Z,5.93
2018-07-08T20:09:16.955Z,3.87
2018-07-08T20:11:43.884Z,6.40
2018-07-08T20:14:10.767Z,4.10
2018-07-08T20:16:37.684Z,6.47
2018-07-08T20:19:04.599Z,5.90
2018-07-08T20:21:31.627Z,7.97
2018-07-08T20:23:58.556Z,6.50
2018-07-08T20:26:25.540Z,6.87
2018-07-08T20:28:52.444Z,6.20
2018-07-08T20:31:19.341Z,5.57
2018-07-08T20:33:46.249Z,7.93
2018-07-08T20:36:13.551Z,7.17
2018-07-08T20:38:40.445Z,8.53
2018-07-08T20:41:08.398Z,6.70
2018-07-08T20:43:36.649Z,6.77
2018-07-08T20:46:04.515Z,5.00
2018-07-08T20:48:32.827Z,4.70
2018-07-08T20:51:02.048Z,5.10
2018-07-08T20:53:30.880Z,5.83
2018-07-08T20:56:01.563Z,8.23
2018-07-08T20:58:28.524Z,6.30
2018-07-08T21:00:55.456Z,6.43
2018-07-08T21:03:22.448Z,6.27
2018-07-08T21:05:49.368Z,7.10
2018-07-08T21:08:16.421Z,4.17
2018-07-08T21:10:43.371Z,6.83
2018-07-08T21:13:11.161Z,6.90
2018-07-08T21:15:38.088Z,7.87
2018-07-08T21:18:05.185Z,6.23
2018-07-08T21:20:32.454Z,6.77
2018-07-08T21:22:59.557Z,5.90
2018-07-08T21:25:26.519Z,6.17
2018-07-08T21:27:53.856Z,8.27
2018-07-08T21:30:20.823Z,4.63
2018-07-08T21:32:47.749Z,6.10
2018-07-08T21:35:14.924Z,7.97
2018-07-08T21:37:41.859Z,7.83
2018-07-08T21:40:09.538Z,8.10
2018-07-08T21:42:38.060Z,8.73
2018-07-08T21:45:05.016Z,6.20
2018-07-08T21:47:32.188Z,6.53
2018-07-08T21:49:59.152Z,8.17
2018-07-08T21:52:26.103Z,7.77
2018-07-08T21:54:53.048Z,4.63
2018-07-08T21:57:20.051Z,6.67
2018-07-08T21:59:47.404Z,6.57
2018-07-08T22:02:19.689Z,9.47
2018-07-08T22:04:47.458Z,5.20
2018-07-08T22:07:20.376Z,8.67
2018-07-08T22:09:48.139Z,7.47
2018-07-08T22:12:15.149Z,5.63
2018-07-08T22:14:42.105Z,7.73
2018-07-08T22:17:09.091Z,6.90
2018-07-08T22:19:36.685Z,10.57
2018-07-08T22:22:03.600Z,5.13
2018-07-08T22:24:30.600Z,8.10
2018-07-08T22:26:57.525Z,7.10
2018-07-08T22:29:24.476Z,7.77
2018-07-08T22:31:51.716Z,6.17
2018-07-08T22:34:18.659Z,6.00
2018-07-08T22:36:45.576Z,5.87
2018-07-08T22:39:12.884Z,8.00
2018-07-08T22:41:39.816Z,8.27
2018-07-08T22:44:07.093Z,6.83
2018-07-08T22:46:35.701Z,8.53
2018-07-08T22:49:02.636Z,8.83
2018-07-08T22:51:29.807Z,9.30
2018-07-08T22:53:56.767Z,4.97
2018-07-08T22:56:24.113Z,7.23
2018-07-08T22:58:51.020Z,6.53
2018-07-08T23:01:29.953Z,9.20
2018-07-08T23:03:58.973Z,8.17
2018-07-08T23:06:27.080Z,5.77
2018-07-08T23:08:54.338Z,5.67
2018-07-08T23:11:21.864Z,9.23
2018-07-08T23:13:50.009Z,7.60
2018-07-08T23:16:16.962Z,8.40
2018-07-08T23:21:17.887Z,7.93
2018-07-08T23:23:44.820Z,13.90
2018-07-08T23:26:11.801Z,7.33
2018-07-08T23:28:38.804Z,9.07
2018-07-08T23:31:06.618Z,7.87
2018-07-08T23:33:33.595Z,7.23
2018-07-08T23:36:01.572Z,9.97
2018-07-08T23:38:28.528Z,8.10
2018-07-08T23:40:55.479Z,10.03
2018-07-08T23:43:22.426Z,6.20
2018-07-08T23:45:49.347Z,8.97
2018-07-08T23:48:16.333Z,6.80
2018-07-08T23:50:43.914Z,7.20
2018-07-08T23:53:10.836Z,10.60
2018-07-08T23:55:37.759Z,7.77
2018-07-08T23:58:05.258Z,9.67
